createdAt,value
2022-08-22T00:00:45.747Z,100035.00
2022-08-22T00:02:49.418Z,100058.20
2022-08-22T00:03:01.248Z,100070.40
2022-08-22T00:03:11.262Z,100060.20
2022-08-22T00:03:42.582Z,100031.40
2022-08-22T00:06:24.690Z,100029.40
2022-08-22T00:09:20.202Z,100028.40
2022-08-22T00:12:00.390Z,100025.00
2022-08-22T00:14:42.344Z,100033.20
2022-08-22T00:17:45.396Z,100035.00
2022-08-22T00:20:26.087Z,100031.80
2022-08-22T00:23:15.992Z,100032.00
2022-08-22T00:26:00.148Z,100031.40
2022-08-22T00:28:40.353Z,100030.80
2022-08-22T00:31:24.667Z,100031.80
2022-08-22T00:34:03.679Z,100036.40
2022-08-22T00:36:47.779Z,100039.40
2022-08-22T00:39:28.516Z,100045.40
2022-08-22T00:42:32.363Z,100041.00
2022-08-22T00:46:00.609Z,100041.80
2022-08-22T00:49:25.466Z,100032.60
2022-08-22T00:52:42.917Z,100026.40
2022-08-22T00:55:59.750Z,100023.20
2022-08-22T00:59:23.962Z,100015.80
2022-08-22T01:02:13.394Z,100013.80
2022-08-22T01:05:11.158Z,100006.60
2022-08-22T01:08:04.837Z,99996.20
2022-08-22T01:10:56.245Z,99996.40
2022-08-22T01:13:48.316Z,100003.60
2022-08-22T01:16:47.688Z,100011.60
2022-08-22T01:20:04.856Z,100011.60
2022-08-22T01:23:33.605Z,100012.20
2022-08-22T01:27:08.546Z,100010.80
2022-08-22T01:30:19.281Z,100004.40
2022-08-22T01:33:35.625Z,100008.60
2022-08-22T01:36:46.016Z,100014.40
2022-08-22T01:39:48.416Z,100007.60
2022-08-22T01:43:07.022Z,100010.40
2022-08-22T01:46:11.995Z,100007.60
2022-08-22T01:48:51.184Z,100003.80
2022-08-22T01:51:32.366Z,99996.00
2022-08-22T01:54:13.315Z,99997.20
2022-08-22T01:56:48.270Z,99995.40
2022-08-22T01:59:35.016Z,99999.20
2022-08-22T02:02:37.019Z,100000.80
2022-08-22T02:05:20.750Z,100007.60
2022-08-22T02:08:01.865Z,100003.60
2022-08-22T02:10:56.255Z,100006.00
2022-08-22T02:13:58.945Z,100009.60
2022-08-22T02:16:42.778Z,100009.00
2022-08-22T02:19:34.912Z,100010.60
2022-08-22T02:22:21.710Z,100014.00
2022-08-22T02:25:08.938Z,100013.40
2022-08-22T02:27:55.291Z,100019.20
2022-08-22T02:30:47.397Z,100020.60
2022-08-22T02:33:35.246Z,100015.60
2022-08-22T02:36:22.143Z,100018.00
2022-08-22T02:39:06.404Z,100018.80
2022-08-22T02:41:52.885Z,100020.80
2022-08-22T02:44:31.398Z,100024.60
2022-08-22T02:47:15.203Z,100027.20
2022-08-22T02:49:55.810Z,100024.80
2022-08-22T02:52:35.253Z,100025.80
2022-08-22T02:55:14.887Z,100026.40
2022-08-22T02:57:58.044Z,100021.60
2022-08-22T03:00:43.565Z,100020.40
2022-08-22T03:03:28.881Z,100021.80
2022-08-22T03:06:07.482Z,100026.00
2022-08-22T03:09:01.007Z,100019.60
2022-08-22T03:11:39.465Z,100020.80
2022-08-22T03:14:21.581Z,100023.20
2022-08-22T03:17:05.243Z,100031.60
2022-08-22T03:20:01.488Z,100038.20
2022-08-22T03:22:45.014Z,100036.20
2022-08-22T03:25:31.271Z,100031.00
2022-08-22T03:28:09.626Z,100026.80
2022-08-22T03:30:57.329Z,100027.60
2022-08-22T03:33:32.474Z,100028.40
2022-08-22T03:36:28.504Z,100029.00
2022-08-22T03:39:17.379Z,100034.20
2022-08-22T03:42:21.043Z,100036.80
2022-08-22T03:45:49.269Z,100032.40
2022-08-22T03:48:42.668Z,100033.40
2022-08-22T03:51:31.755Z,100037.40
2022-08-22T03:54:38.624Z,100031.60
2022-08-22T03:58:05.386Z,100029.80
2022-08-22T04:01:23.473Z,100026.20
2022-08-22T04:04:48.784Z,100029.80
2022-08-22T04:07:47.246Z,100030.80
2022-08-22T04:11:02.453Z,100034.00
2022-08-22T04:14:13.485Z,100033.80
2022-08-22T04:17:20.328Z,100042.20
2022-08-22T04:20:26.632Z,100040.00
2022-08-22T04:23:28.700Z,100043.20
2022-08-22T04:26:12.539Z,100040.80
2022-08-22T04:28:53.950Z,100037.00
2022-08-22T04:31:34.985Z,100034.40
2022-08-22T04:34:17.254Z,100035.40
2022-08-22T04:36:56.644Z,100032.20
2022-08-22T04:39:39.928Z,100042.00
2022-08-22T04:42:34.097Z,100048.60
2022-08-22T04:45:15.594Z,100043.60
2022-08-22T04:47:55.331Z,100046.80
2022-08-22T04:50:35.051Z,100050.20
2022-08-22T04:53:34.334Z,100053.00
2022-08-22T04:56:17.006Z,100048.60
2022-08-22T04:59:00.649Z,100047.40
2022-08-22T05:01:46.933Z,100044.60
2022-08-22T05:04:25.361Z,100043.00
2022-08-22T05:07:08.042Z,100043.60
2022-08-22T05:09:49.568Z,100046.00
2022-08-22T05:12:30.126Z,100043.80
2022-08-22T05:15:11.044Z,100043.80
2022-08-22T05:17:47.472Z,100043.20
2022-08-22T05:20:26.839Z,100047.20
2022-08-22T05:23:05.992Z,100047.80
2022-08-22T05:25:54.532Z,100049.00
2022-08-22T05:28:38.597Z,100051.40
2022-08-22T05:31:23.259Z,100050.60
2022-08-22T05:34:02.466Z,100053.20
2022-08-22T05:36:40.178Z,100055.20
2022-08-22T05:39:18.986Z,100056.80
2022-08-22T05:41:55.390Z,100064.80
2022-08-22T05:44:33.375Z,100069.40
2022-08-22T05:47:18.018Z,100071.60
2022-08-22T05:50:00.228Z,100071.20
2022-08-22T05:52:53.019Z,100066.40
2022-08-22T05:55:32.724Z,100066.80
2022-08-22T05:58:29.476Z,100066.40
2022-08-22T06:01:18.056Z,100065.60
2022-08-22T06:04:02.570Z,100068.80
2022-08-22T06:06:39.308Z,100077.00
2022-08-22T06:09:19.397Z,100077.60
2022-08-22T06:12:02.329Z,100076.00
2022-08-22T06:14:45.396Z,100079.00
2022-08-22T06:17:23.056Z,100079.60
2022-08-22T06:19:57.293Z,100081.80
2022-08-22T06:22:34.279Z,100081.00
2022-08-22T06:25:15.562Z,100081.40
2022-08-22T06:27:50.957Z,100080.80
2022-08-22T06:30:26.775Z,100083.80
2022-08-22T06:33:04.774Z,100084.40
2022-08-22T06:35:59.822Z,100077.20
2022-08-22T06:38:52.827Z,100078.40
2022-08-22T06:41:29.830Z,100080.60
2022-08-22T06:44:06.035Z,100078.60
2022-08-22T06:46:41.809Z,100083.60
2022-08-22T06:49:15.895Z,100089.20
2022-08-22T06:51:49.964Z,100088.80
2022-08-22T06:54:30.357Z,100090.20
2022-08-22T06:57:07.627Z,100091.00
2022-08-22T06:59:44.085Z,100087.60
2022-08-22T07:02:27.746Z,100094.00
2022-08-22T07:05:00.954Z,100089.00
2022-08-22T07:07:38.908Z,100090.80
2022-08-22T07:10:14.359Z,100087.40
2022-08-22T07:12:52.824Z,100090.60
2022-08-22T07:15:35.691Z,100090.40
2022-08-22T07:18:17.158Z,100093.60
2022-08-22T07:20:55.381Z,100090.80
2022-08-22T07:23:38.698Z,100087.80
2022-08-22T07:26:26.191Z,100091.20
2022-08-22T07:29:10.714Z,100088.40
2022-08-22T07:31:52.527Z,100091.60
2022-08-22T07:34:44.890Z,100093.00
2022-08-22T07:37:29.727Z,100095.20
2022-08-22T07:40:14.387Z,100097.20
2022-08-22T07:42:53.649Z,100093.20
2022-08-22T07:45:36.937Z,100092.80
2022-08-22T07:48:26.017Z,100095.40
2022-08-22T07:51:12.543Z,100086.80
2022-08-22T07:53:50.735Z,100090.40
2022-08-22T07:56:31.089Z,100093.40
2022-08-22T07:59:12.709Z,100096.00
2022-08-22T08:01:51.453Z,100101.20
2022-08-22T08:04:29.814Z,100106.20
2022-08-22T08:07:08.410Z,100106.20
2022-08-22T08:09:46.147Z,100107.80
2022-08-22T08:12:21.071Z,100105.60
2022-08-22T08:14:56.919Z,100105.80
2022-08-22T08:17:33.587Z,100100.00
2022-08-22T08:20:11.463Z,100099.60
2022-08-22T08:22:48.028Z,100096.60
2022-08-22T08:25:25.143Z,100099.00
2022-08-22T08:28:18.848Z,100099.00
2022-08-22T08:31:00.197Z,100104.20
2022-08-22T08:33:36.416Z,100103.40
2022-08-22T08:36:19.361Z,100104.20
2022-08-22T08:39:00.401Z,100102.60
2022-08-22T08:42:01.837Z,100103.20
2022-08-22T08:45:08.602Z,100104.40
2022-08-22T08:47:57.575Z,100101.20
2022-08-22T08:50:50.609Z,100101.20
2022-08-22T08:53:48.834Z,100098.80
2022-08-22T08:56:36.795Z,100097.40
2022-08-22T08:59:27.303Z,100098.20
2022-08-22T09:05:36.211Z,100101.20
2022-08-22T09:09:05.211Z,100098.20
2022-08-22T09:12:30.055Z,100098.00
2022-08-22T09:15:21.749Z,100094.80
2022-08-22T09:18:50.608Z,100089.80
2022-08-22T09:22:18.402Z,100095.60
2022-08-22T09:25:25.370Z,100093.80
2022-08-22T09:28:06.019Z,100094.40
2022-08-22T09:30:58.777Z,100088.60
2022-08-22T09:33:41.667Z,100083.00
2022-08-22T09:36:22.561Z,100078.00
2022-08-22T09:39:05.893Z,100081.60
2022-08-22T09:41:51.657Z,100084.20
2022-08-22T09:44:51.307Z,100086.20
2022-08-22T09:47:32.861Z,100086.20
2022-08-22T09:50:14.709Z,100086.60
2022-08-22T09:53:11.802Z,100088.40
2022-08-22T09:55:54.473Z,100086.80
2022-08-22T09:58:40.826Z,100082.20
2022-08-22T10:01:27.398Z,100080.00
2022-08-22T10:04:46.157Z,100084.60
2022-08-22T10:07:47.042Z,100077.60
2022-08-22T10:10:55.844Z,100072.60
2022-08-22T10:13:44.699Z,100074.20
2022-08-22T10:16:34.319Z,100078.80
2022-08-22T10:19:18.818Z,100077.40
2022-08-22T10:22:22.373Z,100081.00
2022-08-22T10:25:25.974Z,100079.80
2022-08-22T10:28:21.495Z,100080.20
2022-08-22T10:31:19.984Z,100079.20
2022-08-22T10:34:04.580Z,100082.20
2022-08-22T10:36:49.055Z,100083.80
2022-08-22T10:39:38.298Z,100089.20
2022-08-22T10:42:34.945Z,100087.20
2022-08-22T10:45:36.126Z,100083.60
2022-08-22T10:48:49.463Z,100088.60
2022-08-22T10:51:37.214Z,100087.80
2022-08-22T10:54:52.906Z,100086.20
2022-08-22T10:57:45.873Z,100090.00
2022-08-22T11:00:50.152Z,100088.20
2022-08-22T11:03:29.755Z,100088.80
2022-08-22T11:06:08.205Z,100090.60
2022-08-22T11:09:27.998Z,100092.60
2022-08-22T11:12:12.965Z,100094.80
2022-08-22T11:15:14.481Z,100090.20
2022-08-22T11:18:24.599Z,100090.00
2022-08-22T11:21:07.304Z,100092.60
2022-08-22T11:23:52.891Z,100091.60
2022-08-22T11:26:47.388Z,100093.00
2022-08-22T11:29:43.495Z,100097.40
2022-08-22T11:32:27.049Z,100094.60
2022-08-22T11:35:09.355Z,100093.40
2022-08-22T11:37:56.276Z,100090.00
2022-08-22T11:40:46.204Z,100093.80
2022-08-22T11:43:47.603Z,100093.80
2022-08-22T11:46:30.840Z,100094.20
2022-08-22T11:49:47.908Z,100092.60
2022-08-22T11:52:54.551Z,100093.20
2022-08-22T11:55:37.096Z,100097.00
2022-08-22T11:58:29.233Z,100092.00
2022-08-22T12:01:18.449Z,100094.60
2022-08-22T12:04:10.580Z,100093.80
2022-08-22T12:07:12.101Z,100097.80
2022-08-22T12:09:55.946Z,100099.20
2022-08-22T12:13:01.551Z,100097.20
2022-08-22T12:15:47.476Z,100096.00
2022-08-22T12:18:53.016Z,100101.40
2022-08-22T12:22:35.000Z,100099.20
2022-08-22T12:25:23.122Z,100093.00
2022-08-22T12:28:15.768Z,100094.80
2022-08-22T12:31:02.404Z,100090.40
2022-08-22T12:34:02.704Z,100093.20
2022-08-22T12:37:03.238Z,100091.40
2022-08-22T12:40:33.202Z,100090.60
2022-08-22T12:43:33.244Z,100091.20
2022-08-22T12:46:28.303Z,100086.60
2022-08-22T12:49:39.486Z,100089.60
2022-08-22T12:52:26.060Z,100088.20
2022-08-22T12:55:19.248Z,100092.20
2022-08-22T12:58:04.060Z,100091.00
2022-08-22T13:00:41.513Z,100087.20
2022-08-22T13:03:29.711Z,100082.60
2022-08-22T13:06:27.291Z,100081.60
2022-08-22T13:09:00.968Z,100079.80
2022-08-22T13:11:40.960Z,100078.80
2022-08-22T13:14:19.062Z,100078.80
2022-08-22T13:17:01.114Z,100078.80
2022-08-22T13:20:00.843Z,100082.40
2022-08-22T13:22:36.693Z,100084.60
2022-08-22T13:25:25.672Z,100085.80
2022-08-22T13:28:02.545Z,100089.00
2022-08-22T13:30:40.146Z,100086.60
2022-08-22T13:33:27.783Z,100089.40
2022-08-22T13:36:06.800Z,100085.60
2022-08-22T13:38:52.193Z,100089.00
2022-08-22T13:41:29.635Z,100087.00
2022-08-22T13:44:26.689Z,100084.80
2022-08-22T13:47:14.272Z,100084.00
2022-08-22T13:49:51.492Z,100087.80
2022-08-22T13:52:32.930Z,100086.40
2022-08-22T13:55:17.993Z,100084.80
2022-08-22T13:57:55.288Z,100084.00
2022-08-22T14:01:16.453Z,100085.20
2022-08-22T14:03:57.547Z,100080.00
2022-08-22T14:06:43.912Z,100078.20
2022-08-22T14:09:32.851Z,100079.80
2022-08-22T14:12:15.159Z,100074.80
2022-08-22T14:14:56.522Z,100073.80
2022-08-22T14:17:38.480Z,100072.20
2022-08-22T14:20:33.825Z,100074.80
2022-08-22T14:23:11.916Z,100071.40
2022-08-22T14:25:47.182Z,100076.40
2022-08-22T14:28:31.871Z,100075.40
2022-08-22T14:31:13.521Z,100075.40
2022-08-22T14:33:52.464Z,100077.20
2022-08-22T14:36:30.747Z,100076.20
2022-08-22T14:39:12.253Z,100075.80
2022-08-22T14:41:57.038Z,100076.40
2022-08-22T14:44:43.520Z,100076.00
2022-08-22T14:47:48.194Z,100072.80
2022-08-22T14:50:50.639Z,100071.20
2022-08-22T14:53:31.943Z,100080.80
2022-08-22T14:56:10.958Z,100082.00
2022-08-22T14:58:55.522Z,100080.00
2022-08-22T15:01:35.508Z,100073.40
2022-08-22T15:04:18.921Z,100079.80
2022-08-22T15:06:58.818Z,100079.80
2022-08-22T15:09:37.121Z,100080.20
2022-08-22T15:12:29.416Z,100080.00
2022-08-22T15:15:09.439Z,100073.40
2022-08-22T15:17:50.965Z,100069.80
2022-08-22T15:20:38.234Z,100067.60
2022-08-22T15:23:25.291Z,100067.40
2022-08-22T15:26:06.496Z,100062.60
2022-08-22T15:28:53.059Z,100061.00
2022-08-22T15:31:26.874Z,100057.80
2022-08-22T15:34:13.213Z,100063.80
2022-08-22T15:40:11.894Z,100061.20
2022-08-22T15:42:50.250Z,100060.00
2022-08-22T15:45:37.733Z,100064.80
2022-08-22T15:48:26.288Z,100065.20
2022-08-22T15:51:09.371Z,100063.60
2022-08-22T15:56:42.908Z,100067.40
2022-08-22T15:59:54.071Z,100066.80
2022-08-22T16:02:35.367Z,100068.60
2022-08-22T16:05:30.902Z,100066.40
2022-08-22T16:08:11.261Z,100068.00
2022-08-22T16:10:47.286Z,100073.20
2022-08-22T16:13:43.831Z,100071.60
2022-08-22T16:16:49.072Z,100066.20
2022-08-22T16:19:25.648Z,100070.40
2022-08-22T16:22:16.283Z,100063.80
2022-08-22T16:25:11.558Z,100062.20
2022-08-22T16:28:01.514Z,100068.60
2022-08-22T16:30:41.005Z,100064.40
2022-08-22T16:33:28.919Z,100073.80
2022-08-22T16:36:47.377Z,100072.20
2022-08-22T16:39:42.990Z,100069.20
2022-08-22T16:42:38.309Z,100065.20
2022-08-22T16:45:34.312Z,100059.20
2022-08-22T16:48:27.899Z,100065.00
2022-08-22T16:51:18.816Z,100063.20
2022-08-22T16:54:12.397Z,100068.80
2022-08-22T16:57:07.836Z,100066.00
2022-08-22T17:00:08.282Z,100066.00
2022-08-22T17:02:54.418Z,100076.00
2022-08-22T17:05:44.945Z,100074.40
2022-08-22T17:08:43.797Z,100081.20
2022-08-22T17:11:35.281Z,100082.60
2022-08-22T17:14:34.848Z,100086.00
2022-08-22T17:17:26.153Z,100079.60
2022-08-22T17:20:14.320Z,100082.40
2022-08-22T17:23:08.281Z,100081.20
2022-08-22T17:25:55.965Z,100087.40
2022-08-22T17:28:41.684Z,100088.80
2022-08-22T17:31:25.876Z,100089.40
2022-08-22T17:34:29.255Z,100093.20
2022-08-22T17:37:13.274Z,100092.00
2022-08-22T17:40:11.405Z,100090.40
2022-08-22T17:43:10.454Z,100097.00
2022-08-22T17:46:00.841Z,100096.60
2022-08-22T17:48:40.230Z,100089.20
2022-08-22T17:51:28.830Z,100090.60
2022-08-22T17:54:13.720Z,100087.20
2022-08-22T17:57:00.445Z,100094.20
2022-08-22T17:59:50.141Z,100095.00
2022-08-22T18:02:29.994Z,100093.60
2022-08-22T18:05:11.618Z,100098.40
2022-08-22T18:08:37.554Z,100095.60
2022-08-22T18:11:10.317Z,100094.00
2022-08-22T18:13:59.636Z,100097.40
2022-08-22T18:16:47.746Z,100098.60
2022-08-22T18:19:39.789Z,100096.00
2022-08-22T18:22:22.334Z,100095.40
2022-08-22T18:25:02.147Z,100099.60
2022-08-22T18:27:41.319Z,100100.00
2022-08-22T18:30:25.136Z,100100.00
2022-08-22T18:33:04.468Z,100104.20
2022-08-22T18:35:53.814Z,100104.80
2022-08-22T18:38:36.018Z,100101.60
2022-08-22T18:41:21.819Z,100096.80
2022-08-22T18:43:58.934Z,100090.20
2022-08-22T18:46:51.694Z,100092.60
2022-08-22T18:49:54.631Z,100090.40
2022-08-22T18:52:44.462Z,100094.00
2022-08-22T18:55:51.129Z,100097.80
2022-08-22T18:58:49.430Z,100098.80
2022-08-22T19:01:53.744Z,100104.40
2022-08-22T19:05:04.559Z,100106.00
2022-08-22T19:08:04.725Z,100104.80
2022-08-22T19:10:55.301Z,100107.60
2022-08-22T19:14:09.072Z,100105.20
2022-08-22T19:17:04.978Z,100108.80
2022-08-22T19:20:13.788Z,100109.80
2022-08-22T19:22:51.135Z,100101.40
2022-08-22T19:25:28.197Z,100097.40
2022-08-22T19:28:35.952Z,100096.00
2022-08-22T19:31:44.529Z,100103.60
2022-08-22T19:34:47.782Z,100101.20
2022-08-22T19:37:33.516Z,100099.60
2022-08-22T19:40:11.385Z,100101.00
2022-08-22T19:42:50.382Z,100100.20
2022-08-22T19:45:29.374Z,100098.20
2022-08-22T19:48:14.218Z,100093.60
2022-08-22T19:50:47.368Z,100094.00
2022-08-22T19:53:41.843Z,100094.00
2022-08-22T19:56:38.604Z,100094.00
2022-08-22T19:59:24.134Z,100094.80
2022-08-22T20:02:17.464Z,100100.00
2022-08-22T20:05:22.342Z,100101.80
2022-08-22T20:08:31.450Z,100096.60
2022-08-22T20:11:20.715Z,100101.40
2022-08-22T20:14:10.522Z,100103.20
2022-08-22T20:17:10.385Z,100100.40
2022-08-22T20:22:52.755Z,100089.00
2022-08-22T20:25:42.861Z,100083.20
2022-08-22T20:28:47.220Z,100078.80
2022-08-22T20:31:27.678Z,100083.00
2022-08-22T20:34:03.420Z,100085.00
2022-08-22T20:36:36.741Z,100081.40
2022-08-22T20:39:16.322Z,100082.20
2022-08-22T20:41:56.488Z,100078.40
2022-08-22T20:44:39.244Z,100070.60
2022-08-22T20:47:21.380Z,100073.40
2022-08-22T20:49:57.452Z,100066.60
2022-08-22T20:52:35.481Z,100063.80
2022-08-22T20:55:16.331Z,100066.60
2022-08-22T20:57:57.399Z,100064.00
2022-08-22T21:00:35.354Z,100063.80
2022-08-22T21:03:14.910Z,100066.00
2022-08-22T21:05:48.928Z,100069.20
2022-08-22T21:08:26.342Z,100073.20
2022-08-22T21:11:23.044Z,100061.80
2022-08-22T21:13:56.455Z,100059.40
2022-08-22T21:16:34.606Z,100051.60
2022-08-22T21:19:20.737Z,100052.00
2022-08-22T21:21:54.244Z,100048.20
2022-08-22T21:24:27.134Z,100047.00
2022-08-22T21:27:03.705Z,100041.60
2022-08-22T21:29:47.898Z,100039.80
2022-08-22T21:32:35.543Z,100037.40
2022-08-22T21:35:25.879Z,100034.00
2022-08-22T21:38:00.530Z,100035.00
2022-08-22T21:40:39.695Z,100028.40
2022-08-22T21:43:28.639Z,100031.40
2022-08-22T21:46:01.886Z,100035.00
2022-08-22T21:48:43.931Z,100036.40
2022-08-22T21:51:46.777Z,100034.20
2022-08-22T21:54:48.123Z,100033.80
2022-08-22T21:57:37.084Z,100027.80
2022-08-22T22:00:48.951Z,100028.20
2022-08-22T22:03:26.834Z,100024.20
2022-08-22T22:06:03.615Z,100026.20
2022-08-22T22:08:37.025Z,100026.20
2022-08-22T22:11:14.953Z,100031.40
2022-08-22T22:13:47.801Z,100034.20
2022-08-22T22:16:25.233Z,100034.20
2022-08-22T22:18:58.533Z,100029.20
2022-08-22T22:21:31.588Z,100029.20
2022-08-22T22:24:05.032Z,100027.40
2022-08-22T22:26:38.029Z,100023.40
2022-08-22T22:29:11.227Z,100028.60
2022-08-22T22:31:44.077Z,100022.40
2022-08-22T22:34:18.595Z,100026.60
2022-08-22T22:36:51.787Z,100024.80
2022-08-22T22:39:24.740Z,100026.00
2022-08-22T22:41:57.862Z,100022.60
2022-08-22T22:44:30.672Z,100025.80
2022-08-22T22:47:05.375Z,100030.80
2022-08-22T22:49:40.547Z,100026.60
2022-08-22T22:52:13.564Z,100029.00
2022-08-22T22:54:46.384Z,100026.20
2022-08-22T22:57:25.535Z,100023.80
2022-08-22T22:59:58.733Z,100024.60
2022-08-22T23:02:31.827Z,100024.80
2022-08-22T23:05:05.027Z,100021.80
2022-08-22T23:07:38.508Z,100015.60
2022-08-22T23:10:13.464Z,100011.00
2022-08-22T23:12:46.201Z,100010.80
2022-08-22T23:15:19.287Z,100016.40
2022-08-22T23:17:52.478Z,100017.40
2022-08-22T23:20:25.571Z,100011.00
2022-08-22T23:22:59.885Z,100016.60
2022-08-22T23:25:32.987Z,100008.60
2022-08-22T23:28:06.601Z,99999.40
2022-08-22T23:30:39.359Z,99997.60
2022-08-22T23:33:12.225Z,99992.20
2022-08-22T23:35:45.434Z,99989.00
2022-08-22T23:38:18.413Z,99984.20
2022-08-22T23:40:53.760Z,99984.20
2022-08-22T23:43:26.589Z,99989.20
2022-08-22T23:45:59.429Z,99989.40
2022-08-22T23:48:32.542Z,99986.60
2022-08-22T23:51:05.647Z,100000.20
2022-08-22T23:53:39.297Z,100001.60
2022-08-22T23:56:19.098Z,99995.60
2022-08-22T23:58:53.484Z,99993.20
